Time;durP1;ratioP1;P1;durP2;ratioP2;P2;SDS_P1;SDS_P2;PMS_P1;PMS_P2;Temp;Humidity;BMP_temperature;BMP_pressure;BME280_temperature;BME280_humidity;BME280_pressure;Samples;Min_cycle;Max_cycle;Signal;HPM_P1;HPM_P2
2022/06/21 00:00:55;;;;;;;1.27;1.15;;;21.00;59.30;;;;;;5045333;28;44947;-62
2022/06/21 00:03:25;;;;;;;1.60;0.90;;;21.00;59.30;;;;;;5043838;28;43951;-62
2022/06/21 00:05:53;;;;;;;2.47;0.90;;;21.00;59.30;;;;;;5045148;28;43475;-62
2022/06/21 00:08:24;;;;;;;1.83;1.00;;;20.90;59.30;;;;;;5044539;28;43760;-62
2022/06/21 00:10:53;;;;;;;1.27;0.80;;;21.00;59.30;;;;;;5044183;28;44727;-62
2022/06/21 00:13:30;;;;;;;0.90;0.90;;;21.00;59.30;;;;;;5043829;28;43506;-62
2022/06/21 00:16:04;;;;;;;1.17;1.00;;;21.00;59.30;;;;;;5040556;28;43444;-62
2022/06/21 00:18:34;;;;;;;0.85;0.85;;;21.00;59.30;;;;;;5044567;28;43521;-62
2022/06/21 00:21:02;;;;;;;1.52;0.80;;;21.00;59.30;;;;;;5041291;28;45546;-62
2022/06/21 00:23:32;;;;;;;1.20;0.75;;;21.00;59.20;;;;;;5043960;28;43486;-62
2022/06/21 00:26:00;;;;;;;1.00;0.90;;;20.90;59.20;;;;;;5044445;28;43508;-63
2022/06/21 00:28:27;;;;;;;1.27;1.02;;;20.90;59.20;;;;;;5044332;28;43489;-62
2022/06/21 00:30:55;;;;;;;0.80;0.75;;;21.00;59.30;;;;;;5042371;28;44059;-62
2022/06/21 00:33:24;;;;;;;0.80;0.70;;;20.90;59.20;;;;;;5043706;28;43423;-62
2022/06/21 00:35:56;;;;;;;1.40;0.90;;;20.90;59.20;;;;;;5043961;28;43464;-63
2022/06/21 00:38:31;;;;;;;1.23;0.85;;;20.90;59.20;;;;;;5044024;28;43430;-62
2022/06/21 00:41:02;;;;;;;1.00;0.90;;;20.90;59.20;;;;;;5031835;28;44979;-62
2022/06/21 00:43:35;;;;;;;1.08;0.80;;;20.90;59.20;;;;;;5042933;28;43652;-61
2022/06/21 00:46:12;;;;;;;1.60;0.82;;;20.90;59.20;;;;;;5044213;28;43434;-62
2022/06/21 00:48:44;;;;;;;1.70;1.00;;;20.90;59.20;;;;;;5043315;28;43473;-62
2022/06/21 00:51:14;;;;;;;0.90;0.80;;;20.90;59.30;;;;;;5044401;28;44700;-62
2022/06/21 00:53:57;;;;;;;1.00;0.80;;;20.90;59.30;;;;;;5043881;28;44101;-62
2022/06/21 00:56:32;;;;;;;1.00;0.90;;;20.90;59.30;;;;;;5042506;28;43427;-62
2022/06/21 00:59:37;;;;;;;1.20;0.90;;;20.80;59.20;;;;;;5044066;28;43494;-62
2022/06/21 01:02:20;;;;;;;0.73;0.68;;;20.80;59.20;;;;;;4987640;28;43809;-61
2022/06/21 01:04:52;;;;;;;0.95;0.80;;;20.80;59.20;;;;;;5053594;28;43484;-62
2022/06/21 01:07:20;;;;;;;1.13;0.90;;;20.80;59.30;;;;;;5040869;28;43440;-62
2022/06/21 01:10:00;;;;;;;1.50;1.10;;;20.80;59.30;;;;;;5043574;28;43479;-62
2022/06/21 01:12:32;;;;;;;1.42;0.95;;;20.80;59.30;;;;;;5033175;28;45005;-62
2022/06/21 01:15:05;;;;;;;2.30;1.00;;;20.80;59.30;;;;;;5044436;28;43442;-62
2022/06/21 01:17:34;;;;;;;1.00;0.80;;;20.80;59.30;;;;;;5041153;28;43493;-62
2022/06/21 01:20:15;;;;;;;1.02;0.80;;;20.80;59.30;;;;;;5042225;28;43511;-62
2022/06/21 01:23:11;;;;;;;0.88;0.70;;;20.80;59.30;;;;;;5043256;28;44723;-62
2022/06/21 01:25:57;;;;;;;1.20;0.70;;;20.80;59.30;;;;;;5043177;28;43551;-62
2022/06/21 01:28:25;;;;;;;1.08;0.98;;;20.80;59.30;;;;;;5031798;28;44032;-62
2022/06/21 01:30:56;;;;;;;1.42;0.90;;;20.80;59.30;;;;;;5039146;28;43443;-62
2022/06/21 01:33:43;;;;;;;0.85;0.60;;;20.80;59.30;;;;;;5042770;28;43786;-62
2022/06/21 01:36:23;;;;;;;0.60;0.60;;;20.70;59.20;;;;;;5041879;28;43503;-62
2022/06/21 01:39:08;;;;;;;1.17;1.00;;;20.80;59.30;;;;;;5042789;28;43464;-61
2022/06/21 01:41:43;;;;;;;0.77;0.70;;;20.70;59.30;;;;;;5041433;28;43463;-62
2022/06/21 01:44:16;;;;;;;1.00;0.90;;;20.70;59.30;;;;;;5043010;28;43792;-62
2022/06/21 01:46:44;;;;;;;1.35;1.08;;;20.70;59.30;;;;;;5043224;28;43491;-61
2022/06/21 01:49:16;;;;;;;1.83;1.10;;;20.70;59.30;;;;;;5042191;28;43464;-62
2022/06/21 01:51:51;;;;;;;0.70;0.70;;;20.70;59.30;;;;;;5039434;28;43542;-62
2022/06/21 01:54:23;;;;;;;0.85;0.85;;;20.70;59.30;;;;;;5034254;28;43786;-62
2022/06/21 01:56:52;;;;;;;0.73;0.73;;;20.70;59.30;;;;;;5042773;28;43982;-62
2022/06/21 01:59:27;;;;;;;1.08;0.68;;;20.70;59.30;;;;;;5041908;28;43435;-62
2022/06/21 02:02:11;;;;;;;0.80;0.80;;;20.70;59.30;;;;;;5031095;28;43476;-62
2022/06/21 02:05:12;;;;;;;1.15;0.93;;;20.70;59.30;;;;;;5042613;28;44028;-62
2022/06/21 02:07:48;;;;;;;0.70;0.70;;;20.70;59.30;;;;;;5037669;28;43737;-62
2022/06/21 02:10:35;;;;;;;0.95;0.88;;;20.60;59.30;;;;;;5042926;28;43430;-62
2022/06/21 02:13:19;;;;;;;1.23;0.90;;;20.60;59.30;;;;;;5041321;28;43411;-62
2022/06/21 02:15:56;;;;;;;0.98;0.80;;;20.60;59.30;;;;;;5042656;28;43783;-62
2022/06/21 02:18:26;;;;;;;1.10;0.95;;;20.60;59.30;;;;;;5042904;28;43497;-63
2022/06/21 02:21:19;;;;;;;0.90;0.88;;;20.60;59.30;;;;;;5041289;28;43536;-62
2022/06/21 02:23:52;;;;;;;1.10;1.00;;;20.60;59.30;;;;;;5042461;28;43424;-62
2022/06/21 02:26:21;;;;;;;1.05;0.77;;;20.60;59.40;;;;;;5042437;28;45000;-62
2022/06/21 02:28:49;;;;;;;0.90;0.90;;;20.60;59.30;;;;;;5042345;28;43535;-62
2022/06/21 02:31:17;;;;;;;0.93;0.80;;;20.60;59.30;;;;;;5042281;28;43502;-62
2022/06/21 02:33:48;;;;;;;1.00;0.90;;;20.60;59.30;;;;;;5042205;28;43491;-62
2022/06/21 02:36:23;;;;;;;1.25;1.15;;;20.60;59.30;;;;;;5042229;28;44999;-62
2022/06/21 02:38:58;;;;;;;0.82;0.82;;;20.60;59.30;;;;;;5042891;28;43522;-62
2022/06/21 02:41:45;;;;;;;0.82;0.75;;;20.60;59.30;;;;;;5042191;28;43452;-62
2022/06/21 02:44:22;;;;;;;1.05;0.80;;;20.60;59.30;;;;;;5030861;28;43538;-63
2022/06/21 02:46:55;;;;;;;0.80;0.80;;;20.60;59.30;;;;;;5039194;28;43834;-62
2022/06/21 02:49:31;;;;;;;0.70;0.70;;;20.60;59.30;;;;;;5042214;28;43483;-62
2022/06/21 02:52:03;;;;;;;0.90;0.90;;;20.60;59.30;;;;;;5041609;28;43466;-62
2022/06/21 02:54:54;;;;;;;1.08;0.93;;;20.60;59.30;;;;;;5041837;28;44059;-62
2022/06/21 02:57:37;;;;;;;0.80;0.80;;;20.60;59.30;;;;;;5041847;28;44032;-62
2022/06/21 03:00:07;;;;;;;1.10;1.00;;;20.50;59.30;;;;;;5041209;28;43426;-62
2022/06/21 03:02:35;;;;;;;1.15;0.90;;;20.50;59.30;;;;;;5031038;28;43496;-62
2022/06/21 03:05:07;;;;;;;0.80;0.80;;;20.50;59.30;;;;;;5041885;28;43538;-63
2022/06/21 03:07:39;;;;;;;1.00;1.00;;;20.50;59.30;;;;;;5043858;28;43842;-62
2022/06/21 03:10:19;;;;;;;0.93;0.90;;;20.50;59.30;;;;;;5044467;28;43455;-62
2022/06/21 03:12:50;;;;;;;0.98;0.98;;;20.50;59.30;;;;;;5045329;28;43473;-62
2022/06/21 03:15:18;;;;;;;0.68;0.68;;;20.50;59.30;;;;;;5044840;28;43551;-62
2022/06/21 03:17:57;;;;;;;1.02;0.70;;;20.50;59.40;;;;;;5043675;28;43863;-62
2022/06/21 03:20:25;;;;;;;0.95;0.88;;;20.50;59.40;;;;;;5030753;28;43454;-62
2022/06/21 03:22:54;;;;;;;1.55;1.13;;;20.50;59.40;;;;;;5045369;28;43527;-62
2022/06/21 03:25:27;;;;;;;0.80;0.80;;;20.50;59.40;;;;;;5045325;28;43464;-62
2022/06/21 03:27:59;;;;;;;0.80;0.80;;;20.50;59.40;;;;;;5042675;28;44236;-62
2022/06/21 03:30:32;;;;;;;1.77;0.90;;;20.50;59.40;;;;;;5042519;28;43427;-62
2022/06/21 03:33:02;;;;;;;0.80;0.80;;;20.50;59.30;;;;;;5044376;28;43423;-62
2022/06/21 03:35:34;;;;;;;1.02;0.90;;;20.50;59.40;;;;;;5044308;28;43500;-62
2022/06/21 03:38:02;;;;;;;0.68;0.68;;;20.40;59.30;;;;;;5032783;28;44641;-63
2022/06/21 03:43:23;;;;;;;1.25;0.85;;;20.40;59.30;;;;;;5044866;28;43531;-63
2022/06/21 03:45:53;;;;;;;1.13;1.02;;;20.40;59.40;;;;;;5077427;28;43574;-62
2022/06/21 03:48:40;;;;;;;1.10;0.75;;;20.40;59.40;;;;;;5044860;28;43874;-62
2022/06/21 03:51:15;;;;;;;0.82;0.73;;;20.40;59.30;;;;;;5040753;28;43469;-62
2022/06/21 03:53:50;;;;;;;0.90;0.90;;;20.40;59.40;;;;;;5044868;28;43467;-62
2022/06/21 03:56:27;;;;;;;0.77;0.70;;;20.40;59.40;;;;;;5044873;28;43537;-62
2022/06/21 03:59:14;;;;;;;0.70;0.70;;;20.40;59.40;;;;;;5039039;28;44678;-62
2022/06/21 04:01:42;;;;;;;0.60;0.60;;;20.40;59.40;;;;;;5043274;28;43527;-62
2022/06/21 04:04:33;;;;;;;0.65;0.65;;;20.40;59.40;;;;;;5044887;28;43575;-62
2022/06/21 04:07:10;;;;;;;;;;;20.40;59.40;;;;;;5041556;28;43419;-62
2022/06/21 04:09:47;;;;;;;0.80;0.80;;;20.40;59.40;;;;;;5043224;28;45463;-63
2022/06/21 04:12:41;;;;;;;0.85;0.77;;;20.30;59.40;;;;;;5044671;28;43451;-62
2022/06/21 04:15:37;;;;;;;0.70;0.70;;;20.40;59.40;;;;;;5043881;28;43442;-62
2022/06/21 04:18:41;;;;;;;0.95;0.80;;;20.30;59.40;;;;;;5027734;28;43629;-62
2022/06/21 04:21:23;;;;;;;0.82;0.82;;;20.30;59.30;;;;;;5021140;28;43992;-62
2022/06/21 04:24:04;;;;;;;1.60;0.90;;;20.30;59.40;;;;;;5043946;28;43694;-62
2022/06/21 04:26:35;;;;;;;;;;;20.30;59.40;;;;;;5044547;28;43924;-62
2022/06/21 04:29:10;;;;;;;1.10;0.90;;;20.30;59.40;;;;;;5044505;28;43443;-62
2022/06/21 04:32:06;;;;;;;0.80;0.70;;;20.30;59.50;;;;;;5043812;28;44697;-62
2022/06/21 04:34:38;;;;;;;0.82;0.80;;;20.30;59.40;;;;;;5042195;28;43592;-62
2022/06/21 04:37:37;;;;;;;0.55;0.55;;;20.30;59.40;;;;;;5045638;28;43553;-63
2022/06/21 04:40:15;;;;;;;0.55;0.55;;;20.30;59.40;;;;;;5044791;28;43424;-62
2022/06/21 04:42:59;;;;;;;0.80;0.80;;;20.30;59.40;;;;;;5043450;28;43872;-62
2022/06/21 04:45:53;;;;;;;0.65;0.60;;;20.30;59.40;;;;;;5044164;28;43494;-62
2022/06/21 04:48:27;;;;;;;0.70;0.70;;;20.30;59.40;;;;;;5036242;28;44055;-63
2022/06/21 04:51:17;;;;;;;0.80;0.80;;;20.30;59.40;;;;;;5044985;28;43415;-63
2022/06/21 04:54:01;;;;;;;1.05;0.70;;;20.30;59.40;;;;;;5040755;28;44696;-62
2022/06/21 04:56:51;;;;;;;0.70;0.70;;;20.30;59.40;;;;;;5043613;28;43454;-63
2022/06/21 04:59:26;;;;;;;0.80;0.80;;;20.30;59.40;;;;;;5043466;28;43391;-62
2022/06/21 05:01:54;;;;;;;0.90;0.90;;;20.30;59.40;;;;;;5039445;28;43514;-62
2022/06/21 05:04:26;;;;;;;0.80;0.80;;;20.30;59.40;;;;;;5043424;28;44525;-62
2022/06/21 05:06:56;;;;;;;0.80;0.80;;;20.30;59.40;;;;;;5043594;28;43994;-62
2022/06/21 05:09:28;;;;;;;0.90;0.90;;;20.30;59.40;;;;;;5043856;28;43419;-62
2022/06/21 05:12:00;;;;;;;;;;;20.20;59.30;;;;;;5042877;28;43504;-62
2022/06/21 05:14:34;;;;;;;0.85;0.77;;;20.30;59.50;;;;;;5039548;28;44993;-62
2022/06/21 05:17:03;;;;;;;0.93;0.80;;;20.20;59.50;;;;;;5044079;28;43965;-62
2022/06/21 05:19:38;;;;;;;1.38;1.13;;;20.20;59.60;;;;;;5042122;28;43420;-63
2022/06/21 05:22:21;;;;;;;0.60;0.60;;;20.20;59.50;;;;;;5042571;28;43506;-62
2022/06/21 05:24:50;;;;;;;0.98;0.80;;;20.20;59.50;;;;;;5034317;28;43973;-62
2022/06/21 05:27:34;;;;;;;0.70;0.70;;;20.20;59.60;;;;;;5042108;28;44042;-62
2022/06/21 05:30:11;;;;;;;1.33;1.00;;;20.20;59.60;;;;;;5034595;28;43486;-62
2022/06/21 05:32:48;;;;;;;0.77;0.77;;;20.20;59.60;;;;;;5042868;28;43531;-62
2022/06/21 05:35:21;;;;;;;0.70;0.70;;;20.20;59.60;;;;;;5042961;28;44670;-62
2022/06/21 05:37:50;;;;;;;0.75;0.75;;;20.20;59.60;;;;;;5042820;28;43403;-62
2022/06/21 05:40:25;;;;;;;0.88;0.88;;;20.20;59.60;;;;;;5042946;28;43453;-63
2022/06/21 05:42:53;;;;;;;0.95;0.60;;;20.20;59.60;;;;;;5043039;28;43515;-62
2022/06/21 05:45:29;;;;;;;0.85;0.85;;;20.20;59.60;;;;;;5042061;28;44690;-63
2022/06/21 05:48:01;;;;;;;0.73;0.73;;;20.20;59.60;;;;;;5043065;28;43463;-62
2022/06/21 05:50:34;;;;;;;1.42;0.75;;;20.20;59.60;;;;;;5042987;28;43566;-62
2022/06/21 05:53:12;;;;;;;0.80;0.60;;;20.20;59.60;;;;;;5043648;28;43506;-62
2022/06/21 05:55:45;;;;;;;0.70;0.70;;;20.20;59.60;;;;;;5031945;28;43748;-63
2022/06/21 05:58:35;;;;;;;1.00;0.80;;;20.20;59.60;;;;;;5042816;28;43444;-63
2022/06/21 06:01:06;;;;;;;1.20;1.10;;;20.20;59.60;;;;;;5041820;28;43478;-62
2022/06/21 06:03:39;;;;;;;;;;;20.10;59.60;;;;;;5030227;28;43427;-63
2022/06/21 06:06:13;;;;;;;0.85;0.82;;;20.20;59.60;;;;;;5042496;28;43873;-62
2022/06/21 06:08:44;;;;;;;0.90;0.90;;;20.10;59.70;;;;;;5038935;28;43427;-62
2022/06/21 06:11:22;;;;;;;0.90;0.90;;;20.20;59.70;;;;;;5042378;28;43393;-62
2022/06/21 06:13:52;;;;;;;0.85;0.80;;;20.10;59.60;;;;;;5042780;28;43513;-62
2022/06/21 06:16:40;;;;;;;0.73;0.73;;;20.20;59.70;;;;;;5042711;28;43792;-62
2022/06/21 06:19:21;;;;;;;1.02;0.93;;;20.20;59.60;;;;;;5041684;28;45122;-62
2022/06/21 06:22:15;;;;;;;0.83;0.80;;;20.20;59.60;;;;;;5033006;28;43464;-62
2022/06/21 06:25:11;;;;;;;0.80;0.80;;;20.20;59.60;;;;;;5033037;28;43558;-62
2022/06/21 06:27:52;;;;;;;0.90;0.90;;;20.20;59.60;;;;;;5038359;28;43795;-62
2022/06/21 06:30:30;;;;;;;1.00;0.90;;;20.20;59.60;;;;;;5040453;28;43951;-63
2022/06/21 06:33:09;;;;;;;0.90;0.80;;;20.20;59.70;;;;;;5028294;28;43524;-63
2022/06/21 06:35:36;;;;;;;1.10;0.90;;;20.20;59.60;;;;;;5042436;28;43407;-63
2022/06/21 06:38:04;;;;;;;1.00;0.90;;;20.20;59.70;;;;;;5042009;28;44647;-62
2022/06/21 06:40:36;;;;;;;2.03;1.00;;;20.20;59.60;;;;;;5041447;28;43413;-62
2022/06/21 06:43:09;;;;;;;1.23;0.80;;;20.20;59.60;;;;;;5044810;28;43514;-62
2022/06/21 06:45:37;;;;;;;1.05;0.98;;;20.20;59.50;;;;;;5045925;28;43545;-63
2022/06/21 06:48:12;;;;;;;1.45;0.95;;;20.20;59.60;;;;;;5045383;28;44057;-62
2022/06/21 06:50:43;;;;;;;0.80;0.65;;;20.20;59.50;;;;;;5045388;28;43454;-62
2022/06/21 06:53:21;;;;;;;;;;;20.20;59.60;;;;;;5041840;28;43573;-62
2022/06/21 06:56:01;;;;;;;0.95;0.85;;;20.20;59.60;;;;;;5045998;28;43426;-63
2022/06/21 06:58:57;;;;;;;0.80;0.80;;;20.20;59.60;;;;;;5045358;28;43785;-63
2022/06/21 07:01:38;;;;;;;0.98;0.90;;;20.20;59.60;;;;;;5044991;28;44788;-62
2022/06/21 07:04:13;;;;;;;0.80;0.80;;;20.20;59.60;;;;;;5044574;28;43551;-62
2022/06/21 07:06:49;;;;;;;1.25;0.90;;;20.20;59.60;;;;;;5043236;28;43498;-62
2022/06/21 07:09:46;;;;;;;1.10;1.02;;;20.20;59.50;;;;;;5045072;28;44358;-63
2022/06/21 07:12:19;;;;;;;0.80;0.80;;;20.20;59.50;;;;;;5044274;28;43981;-62
2022/06/21 07:14:48;;;;;;;2.67;1.10;;;20.20;59.50;;;;;;5033885;28;43461;-63
2022/06/21 07:17:22;;;;;;;1.80;1.23;;;20.20;59.50;;;;;;5045329;28;43444;-63
2022/06/21 07:19:51;;;;;;;1.08;1.02;;;20.20;59.50;;;;;;5044129;28;44929;-63
2022/06/21 07:22:24;;;;;;;0.98;0.90;;;20.20;59.50;;;;;;5044455;28;43535;-62
2022/06/21 07:25:06;;;;;;;0.80;0.77;;;20.20;59.50;;;;;;5045351;28;43365;-62
2022/06/21 07:27:36;;;;;;;1.08;0.90;;;20.20;59.50;;;;;;5044408;28;43555;-62
2022/06/21 07:30:07;;;;;;;1.10;1.00;;;20.20;59.50;;;;;;5039502;28;43562;-62
2022/06/21 07:32:39;;;;;;;;;;;20.20;59.40;;;;;;5035616;28;44548;-62
2022/06/21 07:35:16;;;;;;;1.08;1.02;;;20.20;59.40;;;;;;5045052;28;43459;-63
2022/06/21 07:37:58;;;;;;;0.80;0.80;;;20.20;59.50;;;;;;5044731;28;43509;-62
2022/06/21 07:40:39;;;;;;;1.02;0.80;;;20.20;59.40;;;;;;5044974;28;45035;-62
2022/06/21 07:43:24;;;;;;;1.10;1.00;;;20.20;59.50;;;;;;5045148;28;44043;-62
2022/06/21 07:45:57;;;;;;;1.20;1.10;;;20.20;59.50;;;;;;5033914;28;43971;-62
2022/06/21 07:48:37;;;;;;;2.13;1.20;;;20.20;59.50;;;;;;5045639;28;43532;-63
2022/06/21 07:51:26;;;;;;;1.05;1.00;;;20.20;59.50;;;;;;5043173;28;44380;-63
2022/06/21 07:54:09;;;;;;;1.10;1.00;;;20.30;59.60;;;;;;5042239;28;44818;-63
2022/06/21 07:56:43;;;;;;;1.23;1.10;;;20.20;59.60;;;;;;5044751;28;43486;-63
2022/06/21 07:59:27;;;;;;;1.33;1.10;;;20.20;59.60;;;;;;5043705;28;43439;-62
2022/06/21 08:08:10;;;;;;;3.03;1.15;;;20.30;59.90;;;;;;5044424;28;43466;-63
2022/06/21 08:10:45;;;;;;;3.20;1.27;;;20.30;60.00;;;;;;5043707;28;44036;-62
2022/06/21 08:13:13;;;;;;;1.88;1.10;;;20.30;59.90;;;;;;5043942;28;43821;-62
2022/06/21 08:15:50;;;;;;;1.77;1.27;;;20.30;60.10;;;;;;5044248;28;43650;-63
2022/06/21 08:18:31;;;;;;;1.13;1.02;;;20.30;60.00;;;;;;5044881;28;43522;-63
2022/06/21 08:21:07;;;;;;;2.40;1.45;;;20.30;60.00;;;;;;5044823;28;43555;-63
2022/06/21 08:23:44;;;;;;;3.45;1.33;;;20.30;60.00;;;;;;5043899;28;43886;-63
2022/06/21 08:26:24;;;;;;;2.05;1.10;;;20.30;60.10;;;;;;5039206;28;43485;-63
2022/06/21 08:28:57;;;;;;;3.30;1.23;;;20.30;60.00;;;;;;5044181;28;43431;-64
2022/06/21 08:31:29;;;;;;;2.08;1.35;;;20.30;60.00;;;;;;5039677;28;43546;-63
2022/06/21 08:34:17;;;;;;;0.98;0.80;;;20.40;60.00;;;;;;5044374;28;44054;-63
2022/06/21 08:36:55;;;;;;;1.83;1.15;;;20.40;60.00;;;;;;5043810;28;43488;-63
2022/06/21 08:40:13;;;;;;;1.77;1.08;;;20.40;60.00;;;;;;5044867;28;43423;-63
2022/06/21 08:43:18;;;;;;;1.40;1.30;;;20.40;60.00;;;;;;5019338;28;43648;-63
2022/06/21 08:46:14;;;;;;;1.52;1.13;;;20.40;60.00;;;;;;5037514;28;43817;-63
2022/06/21 08:49:10;;;;;;;1.70;1.10;;;20.40;60.00;;;;;;5043263;28;43415;-62
2022/06/21 08:52:02;;;;;;;3.03;1.20;;;20.40;60.10;;;;;;5024686;28;43502;-62
2022/06/21 08:54:46;;;;;;;1.23;1.10;;;20.40;60.10;;;;;;5043561;28;43431;-63
2022/06/21 08:57:33;;;;;;;1.70;1.10;;;20.40;60.00;;;;;;5034614;28;43816;-62
2022/06/21 09:00:12;;;;;;;1.30;1.20;;;20.40;60.00;;;;;;5031395;28;43705;-63
2022/06/21 09:03:21;;;;;;;1.50;1.15;;;20.40;60.10;;;;;;5042287;28;43568;-63
2022/06/21 09:06:33;;;;;;;3.10;1.50;;;20.50;60.00;;;;;;5013170;28;43517;-63
2022/06/21 09:09:37;;;;;;;1.00;1.00;;;20.40;59.90;;;;;;5013753;28;44987;-63
2022/06/21 09:12:23;;;;;;;1.95;1.20;;;20.40;59.90;;;;;;5042414;28;43675;-63
2022/06/21 09:15:04;;;;;;;1.52;1.20;;;20.40;59.80;;;;;;5044856;28;43533;-63
2022/06/21 09:18:00;;;;;;;1.88;1.05;;;20.40;60.00;;;;;;5043263;28;43463;-62
2022/06/21 09:20:49;;;;;;;1.20;0.90;;;20.50;59.90;;;;;;5036072;28;44037;-64
2022/06/21 09:23:33;;;;;;;1.20;1.05;;;20.50;59.80;;;;;;5039062;28;43483;-63
2022/06/21 09:26:35;;;;;;;1.23;1.13;;;20.50;59.90;;;;;;5043626;28;43430;-62
2022/06/21 09:29:14;;;;;;;1.95;1.25;;;20.50;59.80;;;;;;5043457;28;43522;-63
2022/06/21 09:31:56;;;;;;;2.22;1.17;;;20.50;59.90;;;;;;5042058;28;43806;-63
2022/06/21 09:34:42;;;;;;;3.22;1.40;;;20.50;59.80;;;;;;5036126;28;43489;-63
2022/06/21 09:37:24;;;;;;;1.08;0.98;;;20.50;59.90;;;;;;5041015;28;43471;-63
2022/06/21 09:40:01;;;;;;;1.83;1.23;;;20.60;59.80;;;;;;5042042;28;43568;-63
2022/06/21 09:43:03;;;;;;;1.48;1.00;;;20.60;59.70;;;;;;5040961;28;44050;-63
2022/06/21 09:46:10;;;;;;;1.88;1.20;;;20.70;59.70;;;;;;5040221;28;44073;-63
2022/06/21 09:48:52;;;;;;;1.50;1.27;;;20.70;59.80;;;;;;5038555;28;43489;-63
2022/06/21 09:51:56;;;;;;;1.15;1.05;;;20.70;59.70;;;;;;5042407;28;43533;-63
2022/06/21 09:54:29;;;;;;;1.63;1.23;;;20.70;59.60;;;;;;5041868;28;43781;-63
2022/06/21 09:57:02;;;;;;;1.30;1.08;;;20.70;59.60;;;;;;5039413;28;43651;-63
2022/06/21 09:59:44;;;;;;;1.50;1.35;;;20.80;59.60;;;;;;5039491;28;43501;-63
2022/06/21 10:02:34;;;;;;;1.17;1.05;;;20.80;59.50;;;;;;5041537;28;43514;-63
2022/06/21 10:05:06;;;;;;;1.52;1.13;;;20.80;59.60;;;;;;5038261;28;44973;-63
2022/06/21 10:07:49;;;;;;;2.30;1.00;;;20.80;59.60;;;;;;5041461;28;43380;-63
2022/06/21 10:10:37;;;;;;;1.20;1.10;;;20.90;59.50;;;;;;5041810;28;43582;-63
2022/06/21 10:13:23;;;;;;;1.85;1.10;;;20.80;59.50;;;;;;5040725;28;43573;-62
2022/06/21 10:16:39;;;;;;;2.63;1.20;;;20.90;59.70;;;;;;5055591;28;43820;-63
2022/06/21 10:19:23;;;;;;;1.88;1.48;;;20.90;59.30;;;;;;5040981;28;43783;-62
2022/06/21 10:22:13;;;;;;;1.30;1.10;;;20.90;59.40;;;;;;5041721;28;43547;-63
2022/06/21 10:24:48;;;;;;;2.15;1.30;;;20.90;59.30;;;;;;5039779;28;43650;-63
2022/06/21 10:27:52;;;;;;;1.33;1.23;;;20.90;59.30;;;;;;5041772;28;43866;-63
2022/06/21 10:30:57;;;;;;;1.58;1.20;;;20.90;59.30;;;;;;5040908;28;44049;-64
2022/06/21 10:33:37;;;;;;;1.02;0.90;;;20.90;59.30;;;;;;5041431;28;43436;-62
2022/06/21 10:36:23;;;;;;;1.23;1.13;;;20.90;59.40;;;;;;5039709;28;43448;-63
2022/06/21 10:39:35;;;;;;;1.65;1.40;;;20.90;59.40;;;;;;5041511;28;43811;-63
2022/06/21 10:45:11;;;;;;;1.05;0.90;;;21.00;59.40;;;;;;5037669;28;43550;-63
2022/06/21 10:48:19;;;;;;;1.58;0.93;;;21.00;59.40;;;;;;5036270;28;43634;-63
2022/06/21 10:51:06;;;;;;;0.98;0.90;;;21.00;59.30;;;;;;5038256;28;44666;-62
2022/06/21 10:54:02;;;;;;;1.75;1.23;;;21.10;59.40;;;;;;5020962;28;45054;-62
2022/06/21 10:57:11;;;;;;;1.13;1.05;;;21.10;59.30;;;;;;5039944;28;43508;-63
2022/06/21 11:03:19;;;;;;;1.20;1.05;;;21.10;59.20;;;;;;5038014;28;44698;-63
2022/06/21 11:05:57;;;;;;;0.90;0.90;;;21.10;59.20;;;;;;5039461;28;44063;-63
2022/06/21 11:08:47;;;;;;;1.10;1.00;;;21.20;59.30;;;;;;5040663;28;43530;-63
2022/06/21 11:11:52;;;;;;;1.27;1.15;;;21.20;59.20;;;;;;5040017;28;43437;-63
2022/06/21 11:14:50;;;;;;;1.35;1.25;;;21.20;59.30;;;;;;5040384;28;44031;-63
2022/06/21 11:17:49;;;;;;;1.42;1.20;;;21.20;59.20;;;;;;5040832;28;43432;-62
2022/06/21 11:20:29;;;;;;;1.50;1.20;;;21.30;59.20;;;;;;5040185;28;43457;-63
2022/06/21 11:23:06;;;;;;;1.25;1.15;;;21.20;59.20;;;;;;5041680;28;43594;-63
2022/06/21 11:25:53;;;;;;;1.00;1.00;;;21.20;59.20;;;;;;5036640;28;44753;-63
2022/06/21 11:28:48;;;;;;;2.35;1.10;;;21.30;59.10;;;;;;5039796;28;43528;-63
2022/06/21 11:31:35;;;;;;;1.20;1.05;;;21.30;59.20;;;;;;5041923;28;43491;-62
2022/06/21 11:34:31;;;;;;;1.65;1.30;;;21.40;59.30;;;;;;5039454;28;43570;-63
2022/06/21 11:37:07;;;;;;;1.40;1.30;;;21.40;59.10;;;;;;5041105;28;44712;-63
2022/06/21 11:39:47;;;;;;;1.60;1.50;;;21.50;59.10;;;;;;5042488;28;43404;-63
2022/06/21 11:42:25;;;;;;;1.10;1.00;;;21.50;59.20;;;;;;5040563;28;43548;-62
2022/06/21 11:44:52;;;;;;;1.35;1.10;;;21.50;59.20;;;;;;5039437;28;43554;-63
2022/06/21 11:47:35;;;;;;;1.35;1.25;;;21.50;59.20;;;;;;5040703;28;43690;-63
2022/06/21 11:50:39;;;;;;;0.98;0.98;;;21.60;59.10;;;;;;5042196;28;43736;-63
2022/06/21 11:53:29;;;;;;;1.00;0.90;;;21.60;59.10;;;;;;4987498;28;43463;-62
2022/06/21 11:56:02;;;;;;;1.45;1.00;;;21.70;59.30;;;;;;5041260;28;43538;-64
2022/06/21 11:58:46;;;;;;;1.00;0.98;;;21.70;59.30;;;;;;5041388;28;44964;-63
2022/06/21 12:01:34;;;;;;;0.85;0.85;;;21.70;59.10;;;;;;5040932;28;44029;-63
2022/06/21 12:04:10;;;;;;;1.30;1.20;;;21.70;58.90;;;;;;5039935;28;43485;-63
2022/06/21 12:06:50;;;;;;;1.45;1.35;;;21.70;59.00;;;;;;5040906;28;44027;-63
2022/06/21 12:10:02;;;;;;;1.33;1.23;;;21.70;58.90;;;;;;5041098;28;44717;-64
2022/06/21 12:12:54;;;;;;;0.90;0.90;;;21.80;58.90;;;;;;5032861;28;43999;-63
2022/06/21 12:15:35;;;;;;;1.20;1.10;;;21.80;59.10;;;;;;5040829;28;43525;-62
2022/06/21 12:18:16;;;;;;;1.20;1.10;;;21.80;59.00;;;;;;5041222;28;43598;-63
2022/06/21 12:21:13;;;;;;;2.10;1.02;;;21.80;59.10;;;;;;5040207;28;43850;-63
2022/06/21 12:23:44;;;;;;;2.00;1.20;;;21.80;59.00;;;;;;5040352;28;43594;-63
2022/06/21 12:26:16;;;;;;;1.55;1.10;;;21.90;59.00;;;;;;5041325;28;43445;-63
2022/06/21 12:28:44;;;;;;;1.77;1.00;;;21.90;59.00;;;;;;5041436;28;43467;-63
2022/06/21 12:31:44;;;;;;;1.20;1.10;;;21.90;59.00;;;;;;5041233;28;44696;-63
2022/06/21 12:34:23;;;;;;;2.00;1.20;;;21.90;59.00;;;;;;5040078;28;43900;-63
2022/06/21 12:37:13;;;;;;;1.40;1.08;;;21.90;59.10;;;;;;5041116;28;43486;-63
2022/06/21 12:39:53;;;;;;;1.08;1.08;;;22.00;59.00;;;;;;5039351;28;43448;-63
2022/06/21 12:42:45;;;;;;;1.27;1.17;;;22.00;59.10;;;;;;5042499;28;43795;-63
2022/06/21 12:45:40;;;;;;;1.10;1.00;;;22.00;59.00;;;;;;5040981;28;43458;-63
2022/06/21 12:48:14;;;;;;;1.10;1.00;;;22.00;59.10;;;;;;5042869;28;43545;-63
2022/06/21 12:50:54;;;;;;;1.70;1.30;;;22.00;59.20;;;;;;5032641;28;43507;-64
2022/06/21 12:53:40;;;;;;;1.02;0.95;;;22.00;59.20;;;;;;5039555;28;44955;-63
2022/06/21 12:56:26;;;;;;;1.15;1.10;;;22.10;59.10;;;;;;5041713;28;44174;-63
2022/06/21 12:59:17;;;;;;;1.35;1.10;;;22.10;59.20;;;;;;5044396;28;43424;-63
2022/06/21 13:02:09;;;;;;;1.10;1.00;;;22.10;59.10;;;;;;5043919;28;43468;-63
2022/06/21 13:05:24;;;;;;;0.90;0.90;;;22.10;59.90;;;;;;5036396;28;44979;-63
2022/06/21 13:08:11;;;;;;;1.13;1.02;;;22.20;59.80;;;;;;5033585;28;43636;-63
2022/06/21 13:11:08;;;;;;;1.02;1.02;;;22.20;59.70;;;;;;5040062;28;43607;-63
2022/06/21 13:13:52;;;;;;;0.95;0.88;;;22.20;59.60;;;;;;5039894;28;43548;-62
2022/06/21 13:16:44;;;;;;;1.05;0.95;;;22.20;59.60;;;;;;5040663;28;44031;-63
2022/06/21 13:19:35;;;;;;;1.42;1.08;;;22.20;59.50;;;;;;5040796;28;43558;-63
2022/06/21 13:22:02;;;;;;;1.02;1.00;;;22.30;59.70;;;;;;5034923;28;44071;-63
2022/06/21 13:24:39;;;;;;;1.60;1.10;;;22.30;59.60;;;;;;5039725;28;43592;-63
2022/06/21 13:27:09;;;;;;;1.23;1.13;;;22.40;59.50;;;;;;5041073;28;43790;-63
2022/06/21 13:30:10;;;;;;;1.27;1.17;;;22.40;59.50;;;;;;5039939;28;43601;-63
2022/06/21 13:33:08;;;;;;;1.20;1.10;;;22.40;59.40;;;;;;5039504;28;43547;-63
2022/06/21 13:35:58;;;;;;;0.90;0.90;;;22.50;59.50;;;;;;5039022;28;43590;-63
2022/06/21 13:38:47;;;;;;;1.57;1.40;;;22.50;59.30;;;;;;5039392;28;44983;-63
2022/06/21 13:45:19;;;;;;;0.93;0.93;;;22.50;59.20;;;;;;5038883;28;43489;-63
2022/06/21 13:48:02;;;;;;;1.45;1.15;;;22.50;59.20;;;;;;5006697;28;43558;-63
2022/06/21 13:50:56;;;;;;;1.20;1.10;;;22.60;59.20;;;;;;5039482;28;43969;-63
2022/06/21 13:53:57;;;;;;;1.23;1.13;;;22.50;59.30;;;;;;5039469;28;43489;-63
2022/06/21 13:56:47;;;;;;;1.27;1.17;;;22.60;59.30;;;;;;5022487;28;43608;-63
2022/06/21 13:59:38;;;;;;;1.67;1.00;;;22.60;59.30;;;;;;5040150;28;43754;-63
2022/06/21 14:02:26;;;;;;;1.08;1.08;;;22.60;59.30;;;;;;5038353;28;43793;-63
2022/06/21 14:05:05;;;;;;;2.00;1.02;;;22.60;59.30;;;;;;5038813;28;43750;-63
2022/06/21 14:07:48;;;;;;;1.73;1.10;;;22.60;59.30;;;;;;5036598;28;43430;-63
2022/06/21 14:10:25;;;;;;;1.73;1.00;;;22.60;59.20;;;;;;5039421;28;44009;-63
2022/06/21 14:12:56;;;;;;;1.42;1.00;;;22.70;59.30;;;;;;5070466;28;46113;-63
2022/06/21 14:15:32;;;;;;;1.48;0.88;;;22.60;59.30;;;;;;5037641;28;43552;-63
2022/06/21 14:18:30;;;;;;;1.27;1.17;;;22.60;59.30;;;;;;5041923;28;43462;-63